Time;durP1;ratioP1;P1;durP2;ratioP2;P2;SDS_P1;SDS_P2;PMS_P1;PMS_P2;Temp;Humidity;BMP_temperature;BMP_pressure;BME280_temperature;BME280_humidity;BME280_pressure;Samples;Min_cycle;Max_cycle;Signal;HPM_P1;HPM_P2
2023/02/19 00:01:37;;;;;;;10.20;2.80;;;;;;;-128.00;-1.00;-1.00;76463;1294;4010666;-61
2023/02/19 00:04:09;;;;;;;5.40;2.20;;;;;;;-128.00;-1.00;-1.00;75892;1294;4021120;-61
2023/02/19 00:06:35;;;;;;;4.60;2.10;;;;;;;-128.00;-1.00;-1.00;76536;1294;4010983;-61
2023/02/19 00:09:08;;;;;;;6.30;2.40;;;;;;;-128.00;-1.00;-1.00;75871;1297;4019364;-61
2023/02/19 00:11:34;;;;;;;7.10;1.90;;;;;;;-128.00;-1.00;-1.00;76579;1293;4012705;-60
2023/02/19 00:14:02;;;;;;;5.80;2.80;;;;;;;-128.00;-1.00;-1.00;76431;1297;4012012;-60
2023/02/19 00:16:35;;;;;;;8.80;3.00;;;;;;;-128.00;-1.00;-1.00;75782;1297;4018771;-60
2023/02/19 00:19:04;;;;;;;9.40;3.80;;;;;;;-128.00;-1.00;-1.00;76471;1295;4012619;-60
2023/02/19 00:21:33;;;;;;;10.30;4.20;;;;;;;-128.00;-1.00;-1.00;75779;1294;4018184;-60
2023/02/19 00:24:01;;;;;;;14.50;5.30;;;;;;;-128.00;-1.00;-1.00;76415;1294;4013098;-60
2023/02/19 00:26:28;;;;;;;14.80;3.70;;;;;;;-128.00;-1.00;-1.00;76473;1297;4011167;-60
2023/02/19 00:28:57;;;;;;;11.50;4.10;;;;;;;-128.00;-1.00;-1.00;75788;1297;4012399;-60
2023/02/19 00:31:28;;;;;;;10.60;3.70;;;;;;;-128.00;-1.00;-1.00;76278;1294;4010970;-60
2023/02/19 00:34:03;;;;;;;12.30;4.30;;;;;;;-128.00;-1.00;-1.00;75848;1293;4018627;-61
2023/02/19 00:36:30;;;;;;;5.20;1.80;;;;;;;-128.00;-1.00;-1.00;76493;1297;4011896;-62
2023/02/19 00:38:59;;;;;;;6.20;2.10;;;;;;;-128.00;-1.00;-1.00;75807;1297;4017825;-61
2023/02/19 00:41:26;;;;;;;5.60;2.20;;;;;;;-128.00;-1.00;-1.00;76336;1297;4012349;-61
2023/02/19 00:43:57;;;;;;;4.80;1.80;;;;;;;-128.00;-1.00;-1.00;76346;1297;4011283;-62
2023/02/19 00:46:32;;;;;;;3.10;1.70;;;;;;;-128.00;-1.00;-1.00;75627;1300;4020976;-62
2023/02/19 00:48:58;;;;;;;9.90;2.20;;;;;;;-128.00;-1.00;-1.00;76442;1294;4011435;-63
2023/02/19 00:51:30;;;;;;;9.80;2.30;;;;;;;-128.00;-1.00;-1.00;75772;1297;4018525;-63
2023/02/19 00:53:59;;;;;;;5.70;2.20;;;;;;;-128.00;-1.00;-1.00;76323;1300;4011666;-61
2023/02/19 00:56:28;;;;;;;6.00;2.30;;;;;;;-128.00;-1.00;-1.00;75847;1294;4012034;-61
2023/02/19 00:58:55;;;;;;;4.50;1.80;;;;;;;-128.00;-1.00;-1.00;76445;1297;4011813;-61
2023/02/19 01:01:22;;;;;;;5.90;2.20;;;;;;;-128.00;-1.00;-1.00;76273;1301;4012049;-62
2023/02/19 01:03:52;;;;;;;7.40;2.40;;;;;;;-128.00;-1.00;-1.00;75856;1294;4018054;-62
2023/02/19 01:06:20;;;;;;;5.30;2.20;;;;;;;-128.00;-1.00;-1.00;76557;1294;4011884;-61
2023/02/19 01:08:47;;;;;;;7.50;2.50;;;;;;;-128.00;-1.00;-1.00;76514;1297;4010505;-61
2023/02/19 01:11:20;;;;;;;6.90;2.00;;;;;;;-128.00;-1.00;-1.00;75648;1300;4017138;-62
2023/02/19 01:13:46;;;;;;;4.10;1.90;;;;;;;-128.00;-1.00;-1.00;76565;1294;4010840;-62
2023/02/19 01:16:20;;;;;;;6.80;2.40;;;;;;;-128.00;-1.00;-1.00;76437;1294;4010795;-62
2023/02/19 01:18:51;;;;;;;12.00;1.60;;;;;;;-128.00;-1.00;-1.00;75669;1297;4018913;-61
2023/02/19 01:21:20;;;;;;;6.50;2.00;;;;;;;-128.00;-1.00;-1.00;76436;1294;4012989;-61
2023/02/19 01:23:48;;;;;;;7.00;1.30;;;;;;;-128.00;-1.00;-1.00;76540;1294;4012040;-61
2023/02/19 01:26:22;;;;;;;6.50;2.20;;;;;;;-128.00;-1.00;-1.00;75792;1297;4017782;-61
2023/02/19 01:28:49;;;;;;;5.30;2.00;;;;;;;-128.00;-1.00;-1.00;76306;1297;4012604;-62
2023/02/19 01:31:19;;;;;;;8.00;2.60;;;;;;;-128.00;-1.00;-1.00;75681;1301;4018294;-61
2023/02/19 01:33:47;;;;;;;8.30;2.50;;;;;;;-128.00;-1.00;-1.00;76524;1293;4014226;-60
2023/02/19 01:36:17;;;;;;;7.30;3.20;;;;;;;-128.00;-1.00;-1.00;75850;1297;4017653;-61
2023/02/19 01:38:43;;;;;;;4.90;2.30;;;;;;;-128.00;-1.00;-1.00;76498;1295;4011567;-60
2023/02/19 01:41:15;;;;;;;7.60;3.00;;;;;;;-128.00;-1.00;-1.00;76485;1300;4011866;-63
2023/02/19 01:44:00;;;;;;;8.80;2.70;;;;;;;-128.00;-1.00;-1.00;75892;1297;4017676;-62
2023/02/19 01:46:36;;;;;;;9.30;2.40;;;;;;;-128.00;-1.00;-1.00;75886;1293;4018468;-62
2023/02/19 01:49:18;;;;;;;4.50;2.70;;;;;;;-128.00;-1.00;-1.00;75855;1297;4017177;-62
2023/02/19 01:52:03;;;;;;;8.40;2.50;;;;;;;-128.00;-1.00;-1.00;75917;1300;4017244;-62
2023/02/19 01:54:34;;;;;;;5.00;2.50;;;;;;;-128.00;-1.00;-1.00;75903;1299;4021281;-62
2023/02/19 01:57:03;;;;;;;10.50;2.50;;;;;;;-128.00;-1.00;-1.00;76446;1293;4011223;-61
2023/02/19 01:59:33;;;;;;;6.70;2.40;;;;;;;-128.00;-1.00;-1.00;75932;1294;4018008;-61
2023/02/19 02:01:59;;;;;;;7.30;2.70;;;;;;;-128.00;-1.00;-1.00;76514;1297;4011949;-60
2023/02/19 02:04:26;;;;;;;10.50;3.40;;;;;;;-128.00;-1.00;-1.00;76444;1294;4010983;-61
2023/02/19 02:06:55;;;;;;;12.70;2.80;;;;;;;-128.00;-1.00;-1.00;75694;1297;4011938;-60
2023/02/19 02:12:14;;;;;;;10.50;3.00;;;;;;;-128.00;-1.00;-1.00;75815;1294;4021301;-62
2023/02/19 02:14:44;;;;;;;5.40;2.60;;;;;;;-128.00;-1.00;-1.00;76524;1294;4010926;-61
2023/02/19 02:17:23;;;;;;;7.20;2.20;;;;;;;-128.00;-1.00;-1.00;75660;1300;4016491;-62
2023/02/19 02:20:01;;;;;;;2.70;0.90;;;;;;;-128.00;-1.00;-1.00;75817;1297;4017942;-62
2023/02/19 02:22:51;;;;;;;7.80;1.50;;;;;;;-128.00;-1.00;-1.00;75760;1294;4017839;-63
2023/02/19 02:25:55;;;;;;;4.80;1.70;;;;;;;-128.00;-1.00;-1.00;75699;1297;4017507;-61
2023/02/19 02:29:03;;;;;;;11.10;2.30;;;;;;;-128.00;-1.00;-1.00;75250;1303;4018829;-62
2023/02/19 02:31:40;;;;;;;3.20;1.70;;;;;;;-128.00;-1.00;-1.00;75633;1300;4017384;-60
2023/02/19 02:34:18;;;;;;;4.40;1.80;;;;;;;-128.00;-1.00;-1.00;75660;1295;4020610;-62
2023/02/19 02:36:49;;;;;;;7.70;2.40;;;;;;;-128.00;-1.00;-1.00;75806;1294;4018633;-62
2023/02/19 02:39:18;;;;;;;4.50;2.20;;;;;;;-128.00;-1.00;-1.00;76531;1293;4011307;-62
2023/02/19 02:42:26;;;;;;;7.90;1.60;;;;;;;-128.00;-1.00;-1.00;75668;1294;4018406;-61
2023/02/19 02:45:33;;;;;;;6.30;2.00;;;;;;;-128.00;-1.00;-1.00;75819;1297;4018707;-61
2023/02/19 02:47:40;;;;;;;5.90;2.20;;;;;;;-128.00;-1.00;-1.00;75831;1294;4017592;-62
2023/02/19 02:50:14;;;;;;;9.30;2.70;;;;;;;-128.00;-1.00;-1.00;75670;1300;4018001;-60
2023/02/19 02:55:36;;;;;;;8.70;2.00;;;;;;;-128.00;-1.00;-1.00;75860;1297;4018051;-61
2023/02/19 02:58:03;;;;;;;5.90;1.90;;;;;;;-128.00;-1.00;-1.00;76435;1294;4012066;-60
2023/02/19 03:02:09;;;;;;;5.00;1.70;;;;;;;-128.00;-1.00;-1.00;75814;1297;4012862;-61
2023/02/19 03:03:21;;;;;;;5.30;1.80;;;;;;;-128.00;-1.00;-1.00;75661;1297;4020684;-60
2023/02/19 03:05:52;;;;;;;6.70;1.90;;;;;;;-128.00;-1.00;-1.00;76345;1296;4012990;-60
2023/02/19 03:08:22;;;;;;;2.60;1.70;;;;;;;-128.00;-1.00;-1.00;75660;1301;4018206;-61
2023/02/19 03:10:50;;;;;;;4.30;2.10;;;;;;;-128.00;-1.00;-1.00;76456;1294;4013822;-61
2023/02/19 03:19:20;;;;;;;;;;;;;;;-128.00;-1.00;-1.00;75737;1294;4018761;-60
2023/02/19 03:21:58;;;;;;;11.60;1.50;;;;;;;-128.00;-1.00;-1.00;75648;1299;4017922;-60
2023/02/19 03:27:18;;;;;;;6.70;2.10;;;;;;;-128.00;-1.00;-1.00;75681;1299;4019256;-61
2023/02/19 03:29:47;;;;;;;5.00;1.50;;;;;;;-128.00;-1.00;-1.00;76398;1297;4010361;-61
2023/02/19 03:32:21;;;;;;;8.00;2.30;;;;;;;-128.00;-1.00;-1.00;75808;1297;4012409;-61
2023/02/19 03:34:57;;;;;;;5.90;2.20;;;;;;;-128.00;-1.00;-1.00;76447;1297;4011169;-60
2023/02/19 03:37:51;;;;;;;7.10;2.50;;;;;;;-128.00;-1.00;-1.00;75624;1300;4019080;-61
2023/02/19 03:40:21;;;;;;;6.90;1.80;;;;;;;-128.00;-1.00;-1.00;75439;1301;4018268;-60
2023/02/19 03:43:09;;;;;;;5.50;2.30;;;;;;;-128.00;-1.00;-1.00;76338;1294;4014099;-61
2023/02/19 03:46:08;;;;;;;2.50;1.20;;;;;;;-128.00;-1.00;-1.00;75672;1297;4018200;-61
2023/02/19 03:48:50;;;;;;;8.20;2.50;;;;;;;-128.00;-1.00;-1.00;75783;1297;4019469;-61
2023/02/19 03:51:38;;;;;;;3.30;1.60;;;;;;;-128.00;-1.00;-1.00;75685;1299;4019203;-61
2023/02/19 03:54:21;;;;;;;8.30;1.90;;;;;;;-128.00;-1.00;-1.00;75639;1300;4017016;-61
2023/02/19 03:57:03;;;;;;;3.90;1.40;;;;;;;-128.00;-1.00;-1.00;75811;1300;4017657;-61
2023/02/19 03:59:39;;;;;;;12.20;2.20;;;;;;;-128.00;-1.00;-1.00;75719;1301;4020379;-60
2023/02/19 04:02:09;;;;;;;6.00;2.10;;;;;;;-128.00;-1.00;-1.00;76324;1297;4011211;-60
2023/02/19 04:04:42;;;;;;;4.60;1.70;;;;;;;-128.00;-1.00;-1.00;75846;1297;4019354;-61
2023/02/19 04:07:11;;;;;;;7.30;2.20;;;;;;;-128.00;-1.00;-1.00;76302;1293;4010864;-61
2023/02/19 04:09:44;;;;;;;4.10;1.10;;;;;;;-128.00;-1.00;-1.00;75716;1299;4018783;-61
2023/02/19 04:12:13;;;;;;;4.20;1.40;;;;;;;-128.00;-1.00;-1.00;76219;1294;4011866;-61
2023/02/19 04:14:43;;;;;;;3.60;1.40;;;;;;;-128.00;-1.00;-1.00;75759;1298;4017602;-62
2023/02/19 04:17:14;;;;;;;7.20;1.80;;;;;;;-128.00;-1.00;-1.00;76547;1294;4012511;-61
2023/02/19 04:19:43;;;;;;;7.00;1.80;;;;;;;-128.00;-1.00;-1.00;75663;1299;4017753;-60
2023/02/19 04:22:09;;;;;;;5.00;1.70;;;;;;;-128.00;-1.00;-1.00;76329;1294;4011376;-60
2023/02/19 04:24:42;;;;;;;6.90;2.00;;;;;;;-128.00;-1.00;-1.00;76500;1297;4011428;-60
2023/02/19 04:27:10;;;;;;;6.10;1.90;;;;;;;-128.00;-1.00;-1.00;75797;1294;4018354;-60
2023/02/19 04:29:39;;;;;;;7.20;2.10;;;;;;;-128.00;-1.00;-1.00;76469;1294;4012981;-61
2023/02/19 04:32:06;;;;;;;7.30;2.10;;;;;;;-128.00;-1.00;-1.00;76436;1297;4012535;-61
2023/02/19 04:34:35;;;;;;;5.20;1.70;;;;;;;-128.00;-1.00;-1.00;75692;1300;4018021;-61
2023/02/19 04:37:02;;;;;;;7.70;2.50;;;;;;;-128.00;-1.00;-1.00;76486;1297;4012555;-61
2023/02/19 04:39:29;;;;;;;6.70;2.10;;;;;;;-128.00;-1.00;-1.00;76585;1298;4012125;-60
2023/02/19 04:41:57;;;;;;;5.20;2.10;;;;;;;-128.00;-1.00;-1.00;75804;1297;4012984;-61
2023/02/19 04:44:24;;;;;;;9.70;2.40;;;;;;;-128.00;-1.00;-1.00;76505;1293;4011931;-60
2023/02/19 04:46:51;;;;;;;10.10;2.60;;;;;;;-128.00;-1.00;-1.00;76418;1294;4010428;-61
2023/02/19 04:49:19;;;;;;;7.90;2.20;;;;;;;-128.00;-1.00;-1.00;75832;1294;4011904;-61
2023/02/19 04:51:46;;;;;;;7.30;2.30;;;;;;;-128.00;-1.00;-1.00;76424;1294;4011836;-60
2023/02/19 04:54:12;;;;;;;7.20;2.90;;;;;;;-128.00;-1.00;-1.00;76517;1297;4011375;-61
2023/02/19 04:56:41;;;;;;;8.30;2.10;;;;;;;-128.00;-1.00;-1.00;75818;1297;4010976;-61
2023/02/19 04:59:08;;;;;;;8.30;2.00;;;;;;;-128.00;-1.00;-1.00;76556;1294;4011050;-60
2023/02/19 05:01:35;;;;;;;22.50;2.70;;;;;;;-128.00;-1.00;-1.00;76478;1293;4011808;-61
2023/02/19 05:04:04;;;;;;;5.10;1.70;;;;;;;-128.00;-1.00;-1.00;75900;1300;4012001;-63
2023/02/19 05:06:30;;;;;;;5.70;1.90;;;;;;;-128.00;-1.00;-1.00;76506;1294;4012128;-61
2023/02/19 05:08:57;;;;;;;10.50;2.20;;;;;;;-128.00;-1.00;-1.00;76394;1294;4012025;-63
2023/02/19 05:11:26;;;;;;;6.30;2.10;;;;;;;-128.00;-1.00;-1.00;75701;1297;4011940;-61
2023/02/19 05:13:54;;;;;;;6.30;2.00;;;;;;;-128.00;-1.00;-1.00;76490;1294;4012020;-61
2023/02/19 05:16:21;;;;;;;5.90;2.10;;;;;;;-128.00;-1.00;-1.00;76525;1297;4010673;-61
2023/02/19 05:18:50;;;;;;;5.90;2.00;;;;;;;-128.00;-1.00;-1.00;75963;1297;4012009;-61
2023/02/19 05:21:17;;;;;;;8.30;2.10;;;;;;;-128.00;-1.00;-1.00;76506;1295;4014172;-61
2023/02/19 05:23:43;;;;;;;7.30;2.40;;;;;;;-128.00;-1.00;-1.00;76458;1294;4011976;-62
2023/02/19 05:26:18;;;;;;;5.10;2.40;;;;;;;-128.00;-1.00;-1.00;75818;1294;4017909;-61
2023/02/19 05:28:45;;;;;;;7.70;2.10;;;;;;;-128.00;-1.00;-1.00;76339;1296;4011926;-60
2023/02/19 05:31:14;;;;;;;6.90;2.10;;;;;;;-128.00;-1.00;-1.00;75721;1300;4018033;-61
2023/02/19 05:33:41;;;;;;;6.30;2.00;;;;;;;-128.00;-1.00;-1.00;76317;1296;4012103;-61
2023/02/19 05:36:11;;;;;;;7.10;2.30;;;;;;;-128.00;-1.00;-1.00;76292;1295;4011421;-60
2023/02/19 05:38:41;;;;;;;3.90;2.00;;;;;;;-128.00;-1.00;-1.00;75925;1296;4021261;-62
2023/02/19 05:41:15;;;;;;;7.40;1.90;;;;;;;-128.00;-1.00;-1.00;76282;1294;4014016;-62
2023/02/19 05:43:45;;;;;;;4.20;2.10;;;;;;;-128.00;-1.00;-1.00;75697;1297;4017487;-61
2023/02/19 05:46:13;;;;;;;6.10;1.80;;;;;;;-128.00;-1.00;-1.00;76489;1293;4010484;-61
2023/02/19 05:48:39;;;;;;;7.10;1.70;;;;;;;-128.00;-1.00;-1.00;76380;1300;4011788;-60
2023/02/19 05:51:12;;;;;;;3.40;1.60;;;;;;;-128.00;-1.00;-1.00;75634;1300;4018233;-62
2023/02/19 05:53:39;;;;;;;5.10;1.60;;;;;;;-128.00;-1.00;-1.00;76317;1294;4010292;-61
2023/02/19 05:56:26;;;;;;;5.80;1.90;;;;;;;-128.00;-1.00;-1.00;75674;1298;4012015;-62
2023/02/19 05:58:56;;;;;;;9.60;2.40;;;;;;;-128.00;-1.00;-1.00;75630;1297;4021055;-61
2023/02/19 06:01:24;;;;;;;5.80;2.10;;;;;;;-128.00;-1.00;-1.00;76253;1294;4011969;-60
2023/02/19 06:03:51;;;;;;;5.80;1.90;;;;;;;-128.00;-1.00;-1.00;76441;1294;4012142;-62
2023/02/19 06:06:19;;;;;;;8.20;2.50;;;;;;;-128.00;-1.00;-1.00;75652;1302;4018705;-60
2023/02/19 06:08:49;;;;;;;7.50;2.60;;;;;;;-128.00;-1.00;-1.00;76350;1297;4012650;-60
2023/02/19 06:11:16;;;;;;;5.60;2.20;;;;;;;-128.00;-1.00;-1.00;76283;1294;4012053;-61
2023/02/19 06:13:46;;;;;;;7.70;2.10;;;;;;;-128.00;-1.00;-1.00;75667;1299;4017508;-61
2023/02/19 06:16:13;;;;;;;6.80;2.10;;;;;;;-128.00;-1.00;-1.00;76280;1297;4011309;-61
2023/02/19 06:18:40;;;;;;;6.70;2.20;;;;;;;-128.00;-1.00;-1.00;76419;1300;4012297;-60
2023/02/19 06:21:10;;;;;;;4.90;2.20;;;;;;;-128.00;-1.00;-1.00;75673;1300;4011310;-61
2023/02/19 06:23:36;;;;;;;6.10;2.30;;;;;;;-128.00;-1.00;-1.00;76443;1294;4012062;-61
2023/02/19 06:26:04;;;;;;;9.90;2.70;;;;;;;-128.00;-1.00;-1.00;76330;1294;4010388;-62
2023/02/19 06:28:33;;;;;;;7.50;2.50;;;;;;;-128.00;-1.00;-1.00;75660;1296;4017583;-61
2023/02/19 06:31:00;;;;;;;4.60;2.50;;;;;;;-128.00;-1.00;-1.00;76281;1299;4013112;-60
2023/02/19 06:33:26;;;;;;;8.80;2.50;;;;;;;-128.00;-1.00;-1.00;76335;1294;4011303;-61
2023/02/19 06:36:02;;;;;;;15.00;2.90;;;;;;;-128.00;-1.00;-1.00;75749;1300;4012243;-63
2023/02/19 06:38:31;;;;;;;4.60;2.60;;;;;;;-128.00;-1.00;-1.00;75679;1297;4018042;-61
2023/02/19 06:41:02;;;;;;;8.50;3.60;;;;;;;-128.00;-1.00;-1.00;76336;1298;4013057;-62
2023/02/19 06:43:31;;;;;;;7.00;3.10;;;;;;;-128.00;-1.00;-1.00;75675;1300;4018577;-61
2023/02/19 06:45:59;;;;;;;8.50;3.00;;;;;;;-128.00;-1.00;-1.00;76478;1300;4013938;-61
2023/02/19 06:48:29;;;;;;;10.50;3.50;;;;;;;-128.00;-1.00;-1.00;76334;1298;4011475;-61
2023/02/19 06:50:57;;;;;;;8.70;3.50;;;;;;;-128.00;-1.00;-1.00;75683;1300;4017409;-62
2023/02/19 06:53:24;;;;;;;8.00;3.60;;;;;;;-128.00;-1.00;-1.00;76379;1299;4011189;-63
2023/02/19 06:55:55;;;;;;;14.70;5.20;;;;;;;-22.57;56.31;78705.43;78830;1298;4011393;-61
2023/02/19 06:58:24;;;;;;;10.40;3.90;;;;;;;-22.41;56.25;78698.59;78204;1294;4019084;-61
2023/02/19 07:00:51;;;;;;;10.00;4.10;;;;;;;3.97;70.63;98376.42;79498;1295;3013623;-60
2023/02/19 07:03:20;;;;;;;7.60;3.90;;;;;;;-48.74;41.85;59027.27;78477;1294;3011314;-62
2023/02/19 07:05:49;;;;;;;13.00;4.10;;;;;;;-128.00;-1.00;-1.00;75831;1298;4018055;-61
2023/02/19 07:08:18;;;;;;;11.00;3.80;;;;;;;-128.00;-1.00;-1.00;76784;1296;4010335;-61
2023/02/19 07:10:57;;;;;;;10.90;4.20;;;;;;;-128.00;-1.00;-1.00;75781;1300;4012659;-62
2023/02/19 07:13:26;;;;;;;17.20;4.90;;;;;;;-128.00;-1.00;-1.00;75772;1299;4020999;-61
2023/02/19 07:16:00;;;;;;;15.10;5.40;;;;;;;-128.00;-1.00;-1.00;76543;1297;4011884;-61
2023/02/19 07:18:30;;;;;;;9.70;4.90;;;;;;;-128.00;-1.00;-1.00;75751;1299;4017225;-62
2023/02/19 07:21:08;;;;;;;17.40;6.90;;;;;;;-128.00;-1.00;-1.00;76376;1299;4011994;-60
2023/02/19 07:23:37;;;;;;;11.10;6.00;;;;;;;-128.00;-1.00;-1.00;75867;1297;4017424;-62
2023/02/19 07:26:06;;;;;;;16.40;7.20;;;;;;;-128.00;-1.00;-1.00;76279;1300;4011820;-61
2023/02/19 07:28:33;;;;;;;14.80;6.70;;;;;;;-128.00;-1.00;-1.00;74857;1302;4950228;-61
2023/02/19 07:31:02;;;;;;;14.10;6.00;;;;;;;-128.00;-1.00;-1.00;75788;1297;4018084;-62
2023/02/19 07:33:29;;;;;;;10.80;5.60;;;;;;;-128.00;-1.00;-1.00;76456;1294;4013259;-61
2023/02/19 07:35:56;;;;;;;16.20;6.40;;;;;;;-128.00;-1.00;-1.00;76331;1295;4011396;-60
2023/02/19 07:38:25;;;;;;;13.90;6.50;;;;;;;-128.00;-1.00;-1.00;75755;1296;4017532;-61
2023/02/19 07:40:53;;;;;;;18.80;7.00;;;;;;;-128.00;-1.00;-1.00;76421;1296;4014187;-61
2023/02/19 07:43:24;;;;;;;15.10;6.20;;;;;;;-128.00;-1.00;-1.00;75691;1300;4018329;-62
2023/02/19 07:45:51;;;;;;;17.60;6.30;;;;;;;-128.00;-1.00;-1.00;76300;1297;4012427;-62
2023/02/19 07:48:17;;;;;;;16.20;6.20;;;;;;;-128.00;-1.00;-1.00;76306;1300;4010979;-61
2023/02/19 07:50:53;;;;;;;12.50;5.40;;;;;;;-128.00;-1.00;-1.00;75696;1299;4021395;-62
2023/02/19 07:53:22;;;;;;;15.30;5.90;;;;;;;-128.00;-1.00;-1.00;75710;1296;4017277;-62
2023/02/19 07:55:49;;;;;;;13.70;5.90;;;;;;;-128.00;-1.00;-1.00;76388;1294;4010612;-62
2023/02/19 07:58:16;;;;;;;13.00;6.00;;;;;;;-128.00;-1.00;-1.00;76769;1294;4011787;-62
2023/02/19 08:00:44;;;;;;;14.20;5.90;;;;;;;-128.00;-1.00;-1.00;75721;1300;4017628;-62
2023/02/19 08:03:12;;;;;;;14.60;6.40;;;;;;;-128.00;-1.00;-1.00;76411;1298;4012368;-62
2023/02/19 08:05:42;;;;;;;13.30;6.10;;;;;;;-128.00;-1.00;-1.00;75998;1298;4020656;-62
2023/02/19 08:08:13;;;;;;;12.50;5.40;;;;;;;-128.00;-1.00;-1.00;76680;1298;4011978;-61
2023/02/19 08:13:30;;;;;;;17.00;5.20;;;;;;;-128.00;-1.00;-1.00;76054;1294;4019463;-62
2023/02/19 08:16:00;;;;;;;14.00;4.60;;;;;;;-128.00;-1.00;-1.00;76404;1295;4011853;-62
2023/02/19 08:18:34;;;;;;;10.30;3.80;;;;;;;-128.00;-1.00;-1.00;75722;1300;4018124;-63
2023/02/19 08:21:00;;;;;;;8.60;3.70;;;;;;;-128.00;-1.00;-1.00;76458;1300;4010777;-63
2023/02/19 08:23:27;;;;;;;10.70;4.00;;;;;;;-128.00;-1.00;-1.00;76345;1299;4011005;-63
2023/02/19 08:25:57;;;;;;;8.60;3.90;;;;;;;-128.00;-1.00;-1.00;75642;1300;4011197;-64
2023/02/19 08:28:23;;;;;;;11.70;3.90;;;;;;;-128.00;-1.00;-1.00;76452;1297;4013078;-65
2023/02/19 08:30:51;;;;;;;9.60;3.40;;;;;;;-128.00;-1.00;-1.00;76354;1294;4011628;-61
2023/02/19 08:33:19;;;;;;;6.60;2.80;;;;;;;-128.00;-1.00;-1.00;75730;1297;4018135;-64
2023/02/19 08:35:47;;;;;;;7.10;3.10;;;;;;;-128.00;-1.00;-1.00;76468;1295;4011813;-61
2023/02/19 08:38:15;;;;;;;8.40;2.80;;;;;;;-128.00;-1.00;-1.00;76332;1295;4011005;-63
2023/02/19 08:40:43;;;;;;;9.50;2.70;;;;;;;-128.00;-1.00;-1.00;75708;1297;4011924;-61
2023/02/19 08:43:11;;;;;;;7.30;2.40;;;;;;;-128.00;-1.00;-1.00;76506;1297;4011824;-62
2023/02/19 08:45:39;;;;;;;8.80;3.20;;;;;;;-128.00;-1.00;-1.00;76323;1300;4011477;-62
